sensor_id;sensor_type;location;lat;lon;timestamp;temperature;humidity
851;DHT22;412;51.400;7.480;2023-10-13T00:01:56;19.80;99.90
851;DHT22;412;51.400;7.480;2023-10-13T00:04:25;19.90;99.90
851;DHT22;412;51.400;7.480;2023-10-13T00:06:52;19.90;99.90
851;DHT22;412;51.400;7.480;2023-10-13T00:09:19;19.90;99.90
851;DHT22;412;51.400;7.480;2023-10-13T00:11:49;19.90;99.90
851;DHT22;412;51.400;7.480;2023-10-13T00:14:15;19.80;99.90
851;DHT22;412;51.400;7.480;2023-10-13T00:16:47;19.80;99.90
851;DHT22;412;51.400;7.480;2023-10-13T00:19:29;19.80;99.90
851;DHT22;412;51.400;7.480;2023-10-13T00:22:06;19.80;99.90
851;DHT22;412;51.400;7.480;2023-10-13T00:24:39;19.80;99.90
851;DHT22;412;51.400;7.480;2023-10-13T00:27:19;19.80;99.90
851;DHT22;412;51.400;7.480;2023-10-13T00:30:06;19.80;99.90
851;DHT22;412;51.400;7.480;2023-10-13T00:32:52;19.80;99.90
851;DHT22;412;51.400;7.480;2023-10-13T00:35:27;19.70;99.90
851;DHT22;412;51.400;7.480;2023-10-13T00:38:05;19.70;99.90
851;DHT22;412;51.400;7.480;2023-10-13T00:40:43;19.70;99.90
851;DHT22;412;51.400;7.480;2023-10-13T00:43:22;19.70;99.90
851;DHT22;412;51.400;7.480;2023-10-13T00:45:54;19.70;99.90
851;DHT22;412;51.400;7.480;2023-10-13T00:48:25;19.70;99.90
851;DHT22;412;51.400;7.480;2023-10-13T00:51:06;19.70;99.90
851;DHT22;412;51.400;7.480;2023-10-13T00:53:34;19.80;99.90
851;DHT22;412;51.400;7.480;2023-10-13T00:56:03;19.80;99.90
851;DHT22;412;51.400;7.480;2023-10-13T00:58:36;19.80;99.90
851;DHT22;412;51.400;7.480;2023-10-13T01:01:05;19.80;99.90
851;DHT22;412;51.400;7.480;2023-10-13T01:03:47;19.80;99.90
851;DHT22;412;51.400;7.480;2023-10-13T01:06:21;19.80;99.90
851;DHT22;412;51.400;7.480;2023-10-13T01:08:57;19.80;99.90
851;DHT22;412;51.400;7.480;2023-10-13T01:11:23;19.90;99.90
851;DHT22;412;51.400;7.480;2023-10-13T01:13:49;19.90;99.90
851;DHT22;412;51.400;7.480;2023-10-13T01:16:22;19.90;99.90
851;DHT22;412;51.400;7.480;2023-10-13T01:18:53;19.80;99.90
851;DHT22;412;51.400;7.480;2023-10-13T01:21:19;19.80;99.90
851;DHT22;412;51.400;7.480;2023-10-13T01:23:53;19.80;99.90
851;DHT22;412;51.400;7.480;2023-10-13T01:26:19;19.80;99.90
851;DHT22;412;51.400;7.480;2023-10-13T01:28:57;19.70;99.90
851;DHT22;412;51.400;7.480;2023-10-13T01:31:23;19.80;99.90
851;DHT22;412;51.400;7.480;2023-10-13T01:33:56;19.70;99.90
851;DHT22;412;51.400;7.480;2023-10-13T01:36:26;19.60;99.90
851;DHT22;412;51.400;7.480;2023-10-13T01:38:53;19.70;99.90
851;DHT22;412;51.400;7.480;2023-10-13T01:41:20;19.70;99.90
851;DHT22;412;51.400;7.480;2023-10-13T01:43:46;19.70;99.90
851;DHT22;412;51.400;7.480;2023-10-13T01:46:14;19.70;99.90
851;DHT22;412;51.400;7.480;2023-10-13T01:48:41;19.70;99.90
851;DHT22;412;51.400;7.480;2023-10-13T01:51:09;19.80;99.90
851;DHT22;412;51.400;7.480;2023-10-13T01:53:38;19.80;99.90
851;DHT22;412;51.400;7.480;2023-10-13T01:56:05;19.80;99.90
851;DHT22;412;51.400;7.480;2023-10-13T01:58:39;19.90;99.90
851;DHT22;412;51.400;7.480;2023-10-13T02:01:09;19.90;99.90
851;DHT22;412;51.400;7.480;2023-10-13T02:03:36;19.90;99.90
851;DHT22;412;51.400;7.480;2023-10-13T02:06:08;19.90;99.90
851;DHT22;412;51.400;7.480;2023-10-13T02:08:36;19.90;99.90
851;DHT22;412;51.400;7.480;2023-10-13T02:11:09;19.90;99.90
851;DHT22;412;51.400;7.480;2023-10-13T02:13:35;19.90;99.90
851;DHT22;412;51.400;7.480;2023-10-13T02:16:13;19.90;99.90
851;DHT22;412;51.400;7.480;2023-10-13T02:18:44;19.80;99.90
851;DHT22;412;51.400;7.480;2023-10-13T02:21:09;19.80;99.90
851;DHT22;412;51.400;7.480;2023-10-13T02:23:39;19.80;99.90
851;DHT22;412;51.400;7.480;2023-10-13T02:26:26;19.90;99.90
851;DHT22;412;51.400;7.480;2023-10-13T02:29:01;19.90;99.90
851;DHT22;412;51.400;7.480;2023-10-13T02:31:35;19.90;99.90
851;DHT22;412;51.400;7.480;2023-10-13T02:34:02;19.90;99.90
851;DHT22;412;51.400;7.480;2023-10-13T02:36:32;19.90;99.90
851;DHT22;412;51.400;7.480;2023-10-13T02:39:13;19.80;99.90
851;DHT22;412;51.400;7.480;2023-10-13T02:41:39;19.90;99.90
851;DHT22;412;51.400;7.480;2023-10-13T02:44:07;19.80;99.90
851;DHT22;412;51.400;7.480;2023-10-13T02:46:36;19.80;99.90
851;DHT22;412;51.400;7.480;2023-10-13T02:49:05;19.80;99.90
851;DHT22;412;51.400;7.480;2023-10-13T02:51:38;19.80;99.90
851;DHT22;412;51.400;7.480;2023-10-13T02:54:08;19.80;99.90
851;DHT22;412;51.400;7.480;2023-10-13T02:56:38;19.80;99.90
851;DHT22;412;51.400;7.480;2023-10-13T02:59:13;19.80;99.90
851;DHT22;412;51.400;7.480;2023-10-13T03:01:39;19.80;99.90
851;DHT22;412;51.400;7.480;2023-10-13T03:04:05;19.80;99.90
851;DHT22;412;51.400;7.480;2023-10-13T03:06:39;19.90;99.90
851;DHT22;412;51.400;7.480;2023-10-13T03:09:09;19.90;99.90
851;DHT22;412;51.400;7.480;2023-10-13T03:11:43;19.80;99.90
851;DHT22;412;51.400;7.480;2023-10-13T03:14:15;19.90;99.90
851;DHT22;412;51.400;7.480;2023-10-13T03:16:56;19.90;99.90
851;DHT22;412;51.400;7.480;2023-10-13T03:19:32;19.80;99.90
851;DHT22;412;51.400;7.480;2023-10-13T03:22:10;19.90;99.90
851;DHT22;412;51.400;7.480;2023-10-13T03:24:44;19.90;99.90
851;DHT22;412;51.400;7.480;2023-10-13T03:27:12;19.90;99.90
851;DHT22;412;51.400;7.480;2023-10-13T03:29:41;19.90;99.90
851;DHT22;412;51.400;7.480;2023-10-13T03:32:10;19.90;99.90
851;DHT22;412;51.400;7.480;2023-10-13T03:34:43;20.00;99.90
851;DHT22;412;51.400;7.480;2023-10-13T03:37:27;20.00;99.90
851;DHT22;412;51.400;7.480;2023-10-13T03:40:05;19.90;99.90
851;DHT22;412;51.400;7.480;2023-10-13T03:42:50;19.90;99.90
851;DHT22;412;51.400;7.480;2023-10-13T03:45:32;19.70;99.90
851;DHT22;412;51.400;7.480;2023-10-13T03:48:19;19.70;99.90
851;DHT22;412;51.400;7.480;2023-10-13T03:50:53;19.70;99.90
851;DHT22;412;51.400;7.480;2023-10-13T03:53:38;19.80;99.90
851;DHT22;412;51.400;7.480;2023-10-13T03:56:25;19.80;99.90
851;DHT22;412;51.400;7.480;2023-10-13T03:58:52;19.70;99.90
851;DHT22;412;51.400;7.480;2023-10-13T04:01:22;19.70;99.90
851;DHT22;412;51.400;7.480;2023-10-13T04:04:15;19.70;99.90
851;DHT22;412;51.400;7.480;2023-10-13T04:06:55;19.80;99.90
851;DHT22;412;51.400;7.480;2023-10-13T04:09:39;19.80;99.90
851;DHT22;412;51.400;7.480;2023-10-13T04:12:06;19.80;99.90
851;DHT22;412;51.400;7.480;2023-10-13T04:14:44;19.80;99.90
851;DHT22;412;51.400;7.480;2023-10-13T04:17:28;19.70;99.90
851;DHT22;412;51.400;7.480;2023-10-13T04:19:58;19.70;99.90
851;DHT22;412;51.400;7.480;2023-10-13T04:22:34;19.70;99.90
851;DHT22;412;51.400;7.480;2023-10-13T04:25:25;19.70;99.90
851;DHT22;412;51.400;7.480;2023-10-13T04:28:16;19.70;99.90
851;DHT22;412;51.400;7.480;2023-10-13T04:31:00;19.60;99.90
851;DHT22;412;51.400;7.480;2023-10-13T04:33:37;19.60;99.90
851;DHT22;412;51.400;7.480;2023-10-13T04:36:17;19.60;99.90
851;DHT22;412;51.400;7.480;2023-10-13T04:38:59;19.60;99.90
851;DHT22;412;51.400;7.480;2023-10-13T04:41:33;19.60;99.90
851;DHT22;412;51.400;7.480;2023-10-13T04:44:05;19.60;99.90
851;DHT22;412;51.400;7.480;2023-10-13T04:46:52;19.50;99.90
851;DHT22;412;51.400;7.480;2023-10-13T04:49:24;19.50;99.90
851;DHT22;412;51.400;7.480;2023-10-13T04:52:02;19.50;99.90
851;DHT22;412;51.400;7.480;2023-10-13T04:54:45;19.50;99.90
851;DHT22;412;51.400;7.480;2023-10-13T04:57:20;19.50;99.90
851;DHT22;412;51.400;7.480;2023-10-13T04:59:50;19.60;99.90
851;DHT22;412;51.400;7.480;2023-10-13T05:02:36;19.50;99.90
851;DHT22;412;51.400;7.480;2023-10-13T05:05:15;19.40;99.90
851;DHT22;412;51.400;7.480;2023-10-13T05:07:44;19.50;99.90
851;DHT22;412;51.400;7.480;2023-10-13T05:10:30;19.40;99.90
851;DHT22;412;51.400;7.480;2023-10-13T05:13:14;19.40;99.90
851;DHT22;412;51.400;7.480;2023-10-13T05:15:59;19.50;99.90
851;DHT22;412;51.400;7.480;2023-10-13T05:18:44;19.50;99.90
851;DHT22;412;51.400;7.480;2023-10-13T05:21:28;19.50;99.90
851;DHT22;412;51.400;7.480;2023-10-13T05:24:12;19.50;99.90
851;DHT22;412;51.400;7.480;2023-10-13T05:26:57;19.40;99.90
851;DHT22;412;51.400;7.480;2023-10-13T05:29:43;19.40;99.90
851;DHT22;412;51.400;7.480;2023-10-13T05:32:28;19.40;99.90
851;DHT22;412;51.400;7.480;2023-10-13T05:35:13;19.40;99.90
851;DHT22;412;51.400;7.480;2023-10-13T05:37:58;19.40;99.90
851;DHT22;412;51.400;7.480;2023-10-13T05:40:56;19.40;99.90
851;DHT22;412;51.400;7.480;2023-10-13T05:43:40;19.40;99.90
851;DHT22;412;51.400;7.480;2023-10-13T05:46:25;19.50;99.90
851;DHT22;412;51.400;7.480;2023-10-13T05:48:51;19.40;99.90
851;DHT22;412;51.400;7.480;2023-10-13T05:51:27;19.40;99.90
851;DHT22;412;51.400;7.480;2023-10-13T05:54:05;19.40;99.90
851;DHT22;412;51.400;7.480;2023-10-13T05:56:44;19.40;99.90
851;DHT22;412;51.400;7.480;2023-10-13T05:59:30;19.50;99.90
851;DHT22;412;51.400;7.480;2023-10-13T06:02:17;19.50;99.90
851;DHT22;412;51.400;7.480;2023-10-13T06:05:14;19.40;99.90
851;DHT22;412;51.400;7.480;2023-10-13T06:07:58;19.40;99.90
851;DHT22;412;51.400;7.480;2023-10-13T06:10:43;19.40;99.90
851;DHT22;412;51.400;7.480;2023-10-13T06:13:28;19.40;99.90
851;DHT22;412;51.400;7.480;2023-10-13T06:16:14;19.40;99.90
851;DHT22;412;51.400;7.480;2023-10-13T06:18:59;19.40;99.90
851;DHT22;412;51.400;7.480;2023-10-13T06:21:44;19.30;99.90
851;DHT22;412;51.400;7.480;2023-10-13T06:24:28;19.30;99.90
851;DHT22;412;51.400;7.480;2023-10-13T06:27:13;19.30;99.90
851;DHT22;412;51.400;7.480;2023-10-13T06:29:57;19.30;99.90
851;DHT22;412;51.400;7.480;2023-10-13T06:32:24;19.30;99.90
851;DHT22;412;51.400;7.480;2023-10-13T06:34:53;19.40;99.90
851;DHT22;412;51.400;7.480;2023-10-13T06:37:24;19.40;99.90
851;DHT22;412;51.400;7.480;2023-10-13T06:40:01;19.40;99.90
851;DHT22;412;51.400;7.480;2023-10-13T06:42:41;19.30;99.90
851;DHT22;412;51.400;7.480;2023-10-13T06:45:10;19.40;99.90
851;DHT22;412;51.400;7.480;2023-10-13T06:47:42;19.40;99.90
851;DHT22;412;51.400;7.480;2023-10-13T06:50:12;19.40;99.90
851;DHT22;412;51.400;7.480;2023-10-13T06:52:47;19.40;99.90
851;DHT22;412;51.400;7.480;2023-10-13T06:55:14;19.40;99.90
851;DHT22;412;51.400;7.480;2023-10-13T06:57:46;19.40;99.90
851;DHT22;412;51.400;7.480;2023-10-13T07:00:12;19.30;99.90
851;DHT22;412;51.400;7.480;2023-10-13T07:02:51;19.40;99.90
851;DHT22;412;51.400;7.480;2023-10-13T07:05:18;19.40;99.90
851;DHT22;412;51.400;7.480;2023-10-13T07:07:45;19.50;99.90
851;DHT22;412;51.400;7.480;2023-10-13T07:10:12;19.50;99.90
851;DHT22;412;51.400;7.480;2023-10-13T07:12:39;19.60;99.90
851;DHT22;412;51.400;7.480;2023-10-13T07:15:10;19.60;99.90
851;DHT22;412;51.400;7.480;2023-10-13T07:17:48;19.60;99.90
851;DHT22;412;51.400;7.480;2023-10-13T07:20:20;19.60;99.90
851;DHT22;412;51.400;7.480;2023-10-13T07:22:58;19.70;99.90
851;DHT22;412;51.400;7.480;2023-10-13T07:25:32;19.70;99.90
851;DHT22;412;51.400;7.480;2023-10-13T07:28:01;19.70;99.90
851;DHT22;412;51.400;7.480;2023-10-13T07:30:29;19.70;99.90
851;DHT22;412;51.400;7.480;2023-10-13T07:32:56;19.70;99.90
851;DHT22;412;51.400;7.480;2023-10-13T07:35:25;19.80;99.90
851;DHT22;412;51.400;7.480;2023-10-13T07:37:52;19.90;99.90
851;DHT22;412;51.400;7.480;2023-10-13T07:40:21;19.90;99.90
851;DHT22;412;51.400;7.480;2023-10-13T07:43:05;19.90;99.90
851;DHT22;412;51.400;7.480;2023-10-13T07:45:38;20.00;99.90
851;DHT22;412;51.400;7.480;2023-10-13T07:48:08;20.00;99.90
851;DHT22;412;51.400;7.480;2023-10-13T07:50:47;20.00;99.90
851;DHT22;412;51.400;7.480;2023-10-13T07:53:14;20.10;99.90
851;DHT22;412;51.400;7.480;2023-10-13T07:55:50;20.10;99.90
851;DHT22;412;51.400;7.480;2023-10-13T07:58:25;19.90;99.90
851;DHT22;412;51.400;7.480;2023-10-13T08:00:54;19.90;99.90
851;DHT22;412;51.400;7.480;2023-10-13T08:03:36;20.00;99.90
851;DHT22;412;51.400;7.480;2023-10-13T08:06:16;20.00;99.90
851;DHT22;412;51.400;7.480;2023-10-13T08:08:42;20.00;99.90
851;DHT22;412;51.400;7.480;2023-10-13T08:11:13;19.90;99.90
851;DHT22;412;51.400;7.480;2023-10-13T08:13:45;19.80;99.90
851;DHT22;412;51.400;7.480;2023-10-13T08:16:13;19.90;99.90
851;DHT22;412;51.400;7.480;2023-10-13T08:18:49;20.00;99.90
851;DHT22;412;51.400;7.480;2023-10-13T08:21:19;20.10;99.90
851;DHT22;412;51.400;7.480;2023-10-13T08:23:52;20.10;99.90
851;DHT22;412;51.400;7.480;2023-10-13T08:26:25;20.10;99.90
851;DHT22;412;51.400;7.480;2023-10-13T08:29:09;20.10;99.90
851;DHT22;412;51.400;7.480;2023-10-13T08:31:54;20.00;99.90
851;DHT22;412;51.400;7.480;2023-10-13T08:34:33;20.10;99.90
851;DHT22;412;51.400;7.480;2023-10-13T08:37:05;20.00;99.90
851;DHT22;412;51.400;7.480;2023-10-13T08:39:56;20.10;99.90
851;DHT22;412;51.400;7.480;2023-10-13T08:42:35;20.10;99.90
851;DHT22;412;51.400;7.480;2023-10-13T08:45:07;20.20;99.90
851;DHT22;412;51.400;7.480;2023-10-13T08:47:50;20.20;99.90
851;DHT22;412;51.400;7.480;2023-10-13T08:50:36;20.20;99.90
851;DHT22;412;51.400;7.480;2023-10-13T08:53:25;20.40;99.90
851;DHT22;412;51.400;7.480;2023-10-13T08:56:02;20.50;99.90
851;DHT22;412;51.400;7.480;2023-10-13T08:58:28;20.50;99.90
851;DHT22;412;51.400;7.480;2023-10-13T09:01:14;20.60;99.90
851;DHT22;412;51.400;7.480;2023-10-13T09:04:01;20.60;99.90
851;DHT22;412;51.400;7.480;2023-10-13T09:06:54;20.70;99.90
851;DHT22;412;51.400;7.480;2023-10-13T09:09:45;20.80;99.90
851;DHT22;412;51.400;7.480;2023-10-13T09:12:28;20.90;99.90
851;DHT22;412;51.400;7.480;2023-10-13T09:15:02;21.10;99.90
851;DHT22;412;51.400;7.480;2023-10-13T09:17:31;21.30;99.90
851;DHT22;412;51.400;7.480;2023-10-13T09:20:01;21.40;99.90
851;DHT22;412;51.400;7.480;2023-10-13T09:22:46;21.50;99.90
851;DHT22;412;51.400;7.480;2023-10-13T09:25:37;21.70;99.90
851;DHT22;412;51.400;7.480;2023-10-13T09:28:11;21.80;99.90
851;DHT22;412;51.400;7.480;2023-10-13T09:30:57;21.80;99.90
851;DHT22;412;51.400;7.480;2023-10-13T09:33:25;21.80;99.90
851;DHT22;412;51.400;7.480;2023-10-13T09:36:16;21.80;99.90
851;DHT22;412;51.400;7.480;2023-10-13T09:38:43;21.80;99.90
851;DHT22;412;51.400;7.480;2023-10-13T09:41:27;22.10;99.90
851;DHT22;412;51.400;7.480;2023-10-13T09:43:58;22.40;99.90
851;DHT22;412;51.400;7.480;2023-10-13T09:46:26;22.60;99.90
851;DHT22;412;51.400;7.480;2023-10-13T09:48:58;22.90;99.90
851;DHT22;412;51.400;7.480;2023-10-13T09:51:33;23.10;99.90
851;DHT22;412;51.400;7.480;2023-10-13T09:54:05;23.10;99.90
851;DHT22;412;51.400;7.480;2023-10-13T09:56:45;23.10;99.90
851;DHT22;412;51.400;7.480;2023-10-13T09:59:22;23.10;99.90
851;DHT22;412;51.400;7.480;2023-10-13T10:01:52;23.30;99.90
851;DHT22;412;51.400;7.480;2023-10-13T10:04:24;23.50;99.90
851;DHT22;412;51.400;7.480;2023-10-13T10:06:54;23.60;99.90
851;DHT22;412;51.400;7.480;2023-10-13T10:09:29;23.60;99.90
851;DHT22;412;51.400;7.480;2023-10-13T10:17:22;24.00;99.90
851;DHT22;412;51.400;7.480;2023-10-13T10:19:51;24.10;99.90
851;DHT22;412;51.400;7.480;2023-10-13T10:22:33;24.40;99.90
851;DHT22;412;51.400;7.480;2023-10-13T10:25:08;24.60;99.90
851;DHT22;412;51.400;7.480;2023-10-13T10:27:59;24.70;99.90
851;DHT22;412;51.400;7.480;2023-10-13T10:30:26;24.90;99.90
851;DHT22;412;51.400;7.480;2023-10-13T10:32:56;25.10;99.90
851;DHT22;412;51.400;7.480;2023-10-13T10:35:26;25.10;99.90
851;DHT22;412;51.400;7.480;2023-10-13T10:38:17;25.00;99.90
851;DHT22;412;51.400;7.480;2023-10-13T10:40:54;24.80;99.90
851;DHT22;412;51.400;7.480;2023-10-13T10:43:43;24.80;99.90
851;DHT22;412;51.400;7.480;2023-10-13T10:46:15;24.90;99.90
851;DHT22;412;51.400;7.480;2023-10-13T10:48:42;25.10;99.90
851;DHT22;412;51.400;7.480;2023-10-13T10:51:12;25.10;99.90
851;DHT22;412;51.400;7.480;2023-10-13T10:53:42;25.10;99.90
851;DHT22;412;51.400;7.480;2023-10-13T10:56:15;25.00;99.90
851;DHT22;412;51.400;7.480;2023-10-13T10:58:59;24.70;99.90
851;DHT22;412;51.400;7.480;2023-10-13T11:01:30;24.60;99.90
851;DHT22;412;51.400;7.480;2023-10-13T11:04:06;24.50;99.90
851;DHT22;412;51.400;7.480;2023-10-13T11:06:53;24.60;99.90
851;DHT22;412;51.400;7.480;2023-10-13T11:09:33;24.70;99.90
851;DHT22;412;51.400;7.480;2023-10-13T11:14:48;24.90;99.90
851;DHT22;412;51.400;7.480;2023-10-13T11:17:25;24.90;99.90
851;DHT22;412;51.400;7.480;2023-10-13T11:19:52;25.10;99.90
851;DHT22;412;51.400;7.480;2023-10-13T11:22:22;25.30;99.90
851;DHT22;412;51.400;7.480;2023-10-13T11:25:07;25.40;99.90
851;DHT22;412;51.400;7.480;2023-10-13T11:27:39;25.50;99.10
851;DHT22;412;51.400;7.480;2023-10-13T11:30:15;25.60;99.00
851;DHT22;412;51.400;7.480;2023-10-13T11:32:58;25.50;99.30
851;DHT22;412;51.400;7.480;2023-10-13T11:35:25;25.40;97.80
851;DHT22;412;51.400;7.480;2023-10-13T11:37:51;25.40;98.60
851;DHT22;412;51.400;7.480;2023-10-13T11:40:32;25.10;99.40
851;DHT22;412;51.400;7.480;2023-10-13T11:43:12;24.90;99.90
851;DHT22;412;51.400;7.480;2023-10-13T11:45:47;24.80;99.90
851;DHT22;412;51.400;7.480;2023-10-13T11:48:42;24.70;99.90
851;DHT22;412;51.400;7.480;2023-10-13T11:51:13;24.60;99.90
851;DHT22;412;51.400;7.480;2023-10-13T11:54:05;24.40;99.90
851;DHT22;412;51.400;7.480;2023-10-13T11:56:31;24.20;99.90
851;DHT22;412;51.400;7.480;2023-10-13T11:58:57;24.20;99.90
851;DHT22;412;51.400;7.480;2023-10-13T12:01:27;24.20;99.90
851;DHT22;412;51.400;7.480;2023-10-13T12:04:11;24.20;99.90
851;DHT22;412;51.400;7.480;2023-10-13T12:06:56;24.30;99.90
851;DHT22;412;51.400;7.480;2023-10-13T12:09:43;24.30;99.90
851;DHT22;412;51.400;7.480;2023-10-13T12:14:47;24.40;99.90
851;DHT22;412;51.400;7.480;2023-10-13T12:17:24;24.40;99.90
851;DHT22;412;51.400;7.480;2023-10-13T12:20:05;24.40;99.90
851;DHT22;412;51.400;7.480;2023-10-13T12:22:37;24.40;99.90
851;DHT22;412;51.400;7.480;2023-10-13T12:25:17;24.30;99.90
851;DHT22;412;51.400;7.480;2023-10-13T12:28:10;24.20;99.90
851;DHT22;412;51.400;7.480;2023-10-13T12:30:45;24.20;99.90
851;DHT22;412;51.400;7.480;2023-10-13T12:33:22;24.20;99.90
851;DHT22;412;51.400;7.480;2023-10-13T12:36:03;24.10;99.90
851;DHT22;412;51.400;7.480;2023-10-13T12:38:36;24.10;99.90
851;DHT22;412;51.400;7.480;2023-10-13T12:41:11;24.00;99.90
851;DHT22;412;51.400;7.480;2023-10-13T12:43:55;23.90;99.90
851;DHT22;412;51.400;7.480;2023-10-13T12:46:40;23.90;99.90
851;DHT22;412;51.400;7.480;2023-10-13T12:49:24;23.90;99.90
851;DHT22;412;51.400;7.480;2023-10-13T12:52:09;23.90;99.90
851;DHT22;412;51.400;7.480;2023-10-13T12:54:42;23.80;99.90
851;DHT22;412;51.400;7.480;2023-10-13T12:57:15;23.80;99.90
851;DHT22;412;51.400;7.480;2023-10-13T12:59:42;23.60;99.90
851;DHT22;412;51.400;7.480;2023-10-13T13:02:08;23.60;99.90
851;DHT22;412;51.400;7.480;2023-10-13T13:04:43;23.50;99.90
851;DHT22;412;51.400;7.480;2023-10-13T13:07:13;23.50;99.90
851;DHT22;412;51.400;7.480;2023-10-13T13:09:42;23.50;99.90
851;DHT22;412;51.400;7.480;2023-10-13T13:12:08;23.40;99.90
851;DHT22;412;51.400;7.480;2023-10-13T13:14:38;23.50;99.90
851;DHT22;412;51.400;7.480;2023-10-13T13:17:07;23.50;99.90
851;DHT22;412;51.400;7.480;2023-10-13T13:19:33;23.60;99.90
851;DHT22;412;51.400;7.480;2023-10-13T13:22:02;23.60;99.90
851;DHT22;412;51.400;7.480;2023-10-13T13:24:31;23.60;99.90
851;DHT22;412;51.400;7.480;2023-10-13T13:26:57;23.60;99.90
851;DHT22;412;51.400;7.480;2023-10-13T13:29:31;23.60;99.90
851;DHT22;412;51.400;7.480;2023-10-13T13:31:57;23.70;99.90
851;DHT22;412;51.400;7.480;2023-10-13T13:34:23;23.70;99.90
851;DHT22;412;51.400;7.480;2023-10-13T13:36:48;23.70;99.90
851;DHT22;412;51.400;7.480;2023-10-13T13:39:19;23.70;99.90
851;DHT22;412;51.400;7.480;2023-10-13T13:41:54;23.70;99.90
851;DHT22;412;51.400;7.480;2023-10-13T13:44:24;23.60;99.90
851;DHT22;412;51.400;7.480;2023-10-13T13:46:56;23.60;99.90
851;DHT22;412;51.400;7.480;2023-10-13T13:49:22;23.60;99.90
851;DHT22;412;51.400;7.480;2023-10-13T13:51:56;23.60;99.90
851;DHT22;412;51.400;7.480;2023-10-13T13:54:22;23.60;99.90
851;DHT22;412;51.400;7.480;2023-10-13T13:56:48;23.60;99.90
851;DHT22;412;51.400;7.480;2023-10-13T13:59:15;23.60;99.90
851;DHT22;412;51.400;7.480;2023-10-13T14:01:42;23.60;99.90
851;DHT22;412;51.400;7.480;2023-10-13T14:04:10;23.50;99.90
851;DHT22;412;51.400;7.480;2023-10-13T14:06:36;23.50;99.90
851;DHT22;412;51.400;7.480;2023-10-13T14:09:04;23.40;99.90
851;DHT22;412;51.400;7.480;2023-10-13T14:11:40;23.40;99.90
851;DHT22;412;51.400;7.480;2023-10-13T14:14:11;23.40;99.90
851;DHT22;412;51.400;7.480;2023-10-13T14:16:59;23.30;99.90
851;DHT22;412;51.400;7.480;2023-10-13T14:19:35;23.30;99.90
851;DHT22;412;51.400;7.480;2023-10-13T14:22:06;23.30;99.90
851;DHT22;412;51.400;7.480;2023-10-13T14:24:34;23.30;99.90
851;DHT22;412;51.400;7.480;2023-10-13T14:27:02;23.30;99.90
851;DHT22;412;51.400;7.480;2023-10-13T14:29:54;23.40;99.90
851;DHT22;412;51.400;7.480;2023-10-13T14:32:21;23.50;99.90
851;DHT22;412;51.400;7.480;2023-10-13T14:34:50;23.60;99.40
851;DHT22;412;51.400;7.480;2023-10-13T14:37:20;23.60;99.00
851;DHT22;412;51.400;7.480;2023-10-13T14:39:56;23.50;99.40
851;DHT22;412;51.400;7.480;2023-10-13T14:42:27;23.50;98.70
851;DHT22;412;51.400;7.480;2023-10-13T14:44:53;23.50;98.80
851;DHT22;412;51.400;7.480;2023-10-13T14:47:23;23.50;98.40
851;DHT22;412;51.400;7.480;2023-10-13T14:49:56;23.50;97.90
851;DHT22;412;51.400;7.480;2023-10-13T14:52:25;23.50;97.40
851;DHT22;412;51.400;7.480;2023-10-13T14:54:52;23.60;97.80
851;DHT22;412;51.400;7.480;2023-10-13T14:57:21;23.60;97.60
851;DHT22;412;51.400;7.480;2023-10-13T14:59:54;23.60;97.50
851;DHT22;412;51.400;7.480;2023-10-13T15:02:21;23.60;97.50
851;DHT22;412;51.400;7.480;2023-10-13T15:04:47;23.60;97.60
851;DHT22;412;51.400;7.480;2023-10-13T15:07:17;23.50;97.40
851;DHT22;412;51.400;7.480;2023-10-13T15:09:44;23.50;98.10
851;DHT22;412;51.400;7.480;2023-10-13T15:12:12;23.50;97.80
851;DHT22;412;51.400;7.480;2023-10-13T15:14:39;23.50;98.10
851;DHT22;412;51.400;7.480;2023-10-13T15:17:08;23.50;98.60
851;DHT22;412;51.400;7.480;2023-10-13T15:19:35;23.50;98.40
851;DHT22;412;51.400;7.480;2023-10-13T15:22:04;23.50;99.10
851;DHT22;412;51.400;7.480;2023-10-13T15:24:34;23.50;99.30
851;DHT22;412;51.400;7.480;2023-10-13T15:27:11;23.40;98.80
851;DHT22;412;51.400;7.480;2023-10-13T15:29:37;23.40;99.40
851;DHT22;412;51.400;7.480;2023-10-13T15:32:04;23.40;99.00
851;DHT22;412;51.400;7.480;2023-10-13T15:34:50;23.40;99.20
851;DHT22;412;51.400;7.480;2023-10-13T15:37:16;23.30;99.10
851;DHT22;412;51.400;7.480;2023-10-13T15:39:41;23.20;99.90
851;DHT22;412;51.400;7.480;2023-10-13T15:42:07;23.20;99.60
851;DHT22;412;51.400;7.480;2023-10-13T15:44:35;23.20;99.00
851;DHT22;412;51.400;7.480;2023-10-13T15:47:01;23.20;99.00
851;DHT22;412;51.400;7.480;2023-10-13T15:49:29;23.20;99.10
851;DHT22;412;51.400;7.480;2023-10-13T15:51:55;23.20;99.10
851;DHT22;412;51.400;7.480;2023-10-13T15:54:23;23.20;98.80
851;DHT22;412;51.400;7.480;2023-10-13T15:56:50;23.20;99.20
851;DHT22;412;51.400;7.480;2023-10-13T15:59:22;23.20;98.90
851;DHT22;412;51.400;7.480;2023-10-13T16:01:51;23.10;99.90
851;DHT22;412;51.400;7.480;2023-10-13T16:04:23;23.10;98.80
851;DHT22;412;51.400;7.480;2023-10-13T16:06:49;23.10;99.40
851;DHT22;412;51.400;7.480;2023-10-13T16:09:18;23.00;98.90
851;DHT22;412;51.400;7.480;2023-10-13T16:11:52;23.00;99.30
851;DHT22;412;51.400;7.480;2023-10-13T16:14:18;23.00;99.00
851;DHT22;412;51.400;7.480;2023-10-13T16:16:49;23.00;99.60
851;DHT22;412;51.400;7.480;2023-10-13T16:19:19;23.00;99.40
851;DHT22;412;51.400;7.480;2023-10-13T16:21:50;23.00;99.10
851;DHT22;412;51.400;7.480;2023-10-13T16:24:16;22.90;99.30
851;DHT22;412;51.400;7.480;2023-10-13T16:26:46;22.90;99.60
851;DHT22;412;51.400;7.480;2023-10-13T16:29:15;22.90;99.50
851;DHT22;412;51.400;7.480;2023-10-13T16:31:42;22.90;99.50
851;DHT22;412;51.400;7.480;2023-10-13T16:34:15;22.80;99.90
851;DHT22;412;51.400;7.480;2023-10-13T16:36:42;22.70;99.90
851;DHT22;412;51.400;7.480;2023-10-13T16:39:10;22.70;99.60
851;DHT22;412;51.400;7.480;2023-10-13T16:41:36;22.70;99.90
851;DHT22;412;51.400;7.480;2023-10-13T16:44:02;22.70;99.90
851;DHT22;412;51.400;7.480;2023-10-13T16:46:36;22.60;99.90
851;DHT22;412;51.400;7.480;2023-10-13T16:49:02;22.50;99.90
851;DHT22;412;51.400;7.480;2023-10-13T16:51:28;22.50;99.90
851;DHT22;412;51.400;7.480;2023-10-13T16:53:54;22.50;99.90
851;DHT22;412;51.400;7.480;2023-10-13T16:56:20;22.40;99.90
851;DHT22;412;51.400;7.480;2023-10-13T16:58:48;22.40;99.90
851;DHT22;412;51.400;7.480;2023-10-13T17:01:14;22.40;99.90
851;DHT22;412;51.400;7.480;2023-10-13T17:03:42;22.40;99.90
851;DHT22;412;51.400;7.480;2023-10-13T17:06:10;22.30;99.90
851;DHT22;412;51.400;7.480;2023-10-13T17:08:38;22.30;99.90
851;DHT22;412;51.400;7.480;2023-10-13T17:11:12;22.30;99.90
851;DHT22;412;51.400;7.480;2023-10-13T17:13:39;22.30;99.90
851;DHT22;412;51.400;7.480;2023-10-13T17:16:20;22.30;99.90
851;DHT22;412;51.400;7.480;2023-10-13T17:18:47;22.30;99.90
851;DHT22;412;51.400;7.480;2023-10-13T17:21:17;22.20;99.90
851;DHT22;412;51.400;7.480;2023-10-13T17:23:51;22.20;99.90
851;DHT22;412;51.400;7.480;2023-10-13T17:26:18;22.20;99.90
851;DHT22;412;51.400;7.480;2023-10-13T17:28:43;22.30;99.90
851;DHT22;412;51.400;7.480;2023-10-13T17:31:09;22.20;99.90